PWSweather.com
Personal Weather Stations
Station Observations
CANDIOTINO
Barrio Candioti Norte, Santa FeAR 3000

Barrio Candioti NorteSanta FeAR 3000

Lat: -31.632778, Lon: -60.695556

Elevation: 69

Station Type: WH-1081

http://www.eltiempoensantafe.com.ar

High Low Average
Temperature 61.3°F16.3°C 38.8°F3.8°C 50.5°F10.3°C
Dew Point 43.7°F6.5°C 22.4°F-5.3°C 33.9°F1.1°C
Winds 6.0 mph 9.7 kmh Calm Calm 2.0 mph NE3.2 kmh NE
Wind Gusts 10.7 mph17.2 kmh -- 5.0 mph8.0 kmh
Humidity 87% 24% 57%
Pressure 30.34 in1027.4 mb 30.16 in1021.3 mb -
Precipitation 0.00 in0.0 mm - -
Hour Temp Dew Point Humidity Winds Wind Gusts Pressure Precip Precip Rate Daily Precip Total
12:00 AM 45.7°F7.6°C 36.1°F2.3°C 69% Calm Calm 1.6 mph2.6 kmh 30.34 in1027.4 mb 0.00 in0.0 mm 0.00 in0.0 mm 0.00 in0.0 mm
12:15 AM 45.1°F7.3°C 35.9°F2.2°C 70% Calm Calm -- 30.34 in1027.4 mb 0.00 in0.0 mm 0.00 in0.0 mm 0.00 in0.0 mm
12:30 AM 45.0°F7.2°C 36.1°F2.3°C 71% 0.7 mph E1.1 kmh E 1.6 mph2.6 kmh 30.34 in1027.4 mb 0.00 in0.0 mm 0.00 in0.0 mm 0.00 in0.0 mm
12:45 AM 44.8°F7.1°C 36.7°F2.6°C 73% 0.7 mph SE1.1 kmh SE 3.1 mph5.0 kmh 30.34 in1027.4 mb 0.00 in0.0 mm 0.00 in0.0 mm 0.00 in0.0 mm
01:00 AM 45.0°F7.2°C 36.8°F2.7°C 73% Calm Calm 3.1 mph5.0 kmh 30.33 in1027.1 mb 0.00 in0.0 mm 0.00 in0.0 mm 0.00 in0.0 mm
01:15 AM 44.4°F6.9°C 37.0°F2.8°C 75% Calm Calm 1.6 mph2.6 kmh 30.33 in1027.1 mb 0.00 in0.0 mm 0.00 in0.0 mm 0.00 in0.0 mm
01:30 AM 43.7°F6.5°C 36.6°F2.6°C 76% Calm Calm 1.6 mph2.6 kmh 30.32 in1026.8 mb 0.00 in0.0 mm 0.00 in0.0 mm 0.00 in0.0 mm
01:45 AM 44.1°F6.7°C 37.0°F2.8°C 76% Calm Calm 2.2 mph3.5 kmh 30.33 in1027.1 mb 0.00 in0.0 mm 0.00 in0.0 mm 0.00 in0.0 mm
02:00 AM 44.6°F7.0°C 37.2°F2.9°C 75% 1.6 mph ESE2.6 kmh ESE 2.2 mph3.5 kmh 30.32 in1026.8 mb 0.00 in0.0 mm 0.00 in0.0 mm 0.00 in0.0 mm
02:15 AM 44.1°F6.7°C 37.0°F2.8°C 76% Calm Calm 2.2 mph3.5 kmh 30.31 in1026.4 mb 0.00 in0.0 mm 0.00 in0.0 mm 0.00 in0.0 mm
02:30 AM 43.9°F6.6°C 37.1°F2.8°C 77% 0.7 mph ESE1.1 kmh ESE 2.2 mph3.5 kmh 30.31 in1026.4 mb 0.00 in0.0 mm 0.00 in0.0 mm 0.00 in0.0 mm
02:45 AM 44.1°F6.7°C 36.7°F2.6°C 75% Calm Calm 2.2 mph3.5 kmh 30.30 in1026.1 mb 0.00 in0.0 mm 0.00 in0.0 mm 0.00 in0.0 mm
03:00 AM 43.0°F6.1°C 35.3°F1.8°C 74% Calm Calm 0.7 mph1.1 kmh 30.30 in1026.1 mb 0.00 in0.0 mm 0.00 in0.0 mm 0.00 in0.0 mm
03:15 AM 43.0°F6.1°C 35.6°F2.0°C 75% Calm Calm 2.2 mph3.5 kmh 30.29 in1025.7 mb 0.00 in0.0 mm 0.00 in0.0 mm 0.00 in0.0 mm
03:30 AM 43.0°F6.1°C 35.6°F2.0°C 75% Calm Calm 3.1 mph5.0 kmh 30.28 in1025.4 mb 0.00 in0.0 mm 0.00 in0.0 mm 0.00 in0.0 mm
03:45 AM 42.4°F5.8°C 35.8°F2.1°C 77% Calm Calm 1.6 mph2.6 kmh 30.28 in1025.4 mb 0.00 in0.0 mm 0.00 in0.0 mm 0.00 in0.0 mm
04:00 AM 42.3°F5.7°C 36.2°F2.3°C 79% Calm Calm 2.2 mph3.5 kmh 30.27 in1025.1 mb 0.00 in0.0 mm 0.00 in0.0 mm 0.00 in0.0 mm
04:15 AM 41.9°F5.5°C 35.9°F2.2°C 79% Calm Calm 1.6 mph2.6 kmh 30.28 in1025.4 mb 0.00 in0.0 mm 0.00 in0.0 mm 0.00 in0.0 mm
04:30 AM 41.9°F5.5°C 36.5°F2.5°C 81% Calm Calm 1.6 mph2.6 kmh 30.27 in1025.1 mb 0.00 in0.0 mm 0.00 in0.0 mm 0.00 in0.0 mm
04:45 AM 41.5°F5.3°C 36.2°F2.3°C 81% Calm Calm 0.7 mph1.1 kmh 30.26 in1024.7 mb 0.00 in0.0 mm 0.00 in0.0 mm 0.00 in0.0 mm
05:00 AM 41.7°F5.4°C 36.9°F2.7°C 83% 0.7 mph E1.1 kmh E 2.2 mph3.5 kmh 30.26 in1024.7 mb 0.00 in0.0 mm 0.00 in0.0 mm 0.00 in0.0 mm
05:15 AM 41.7°F5.4°C 36.9°F2.7°C 83% Calm Calm 3.1 mph5.0 kmh 30.27 in1025.1 mb 0.00 in0.0 mm 0.00 in0.0 mm 0.00 in0.0 mm
05:30 AM 41.4°F5.2°C 36.6°F2.6°C 83% 0.7 mph ENE1.1 kmh ENE 3.1 mph5.0 kmh 30.26 in1024.7 mb 0.00 in0.0 mm 0.00 in0.0 mm 0.00 in0.0 mm
05:45 AM 41.0°F5.0°C 36.2°F2.3°C 83% 0.7 mph E1.1 kmh E 3.1 mph5.0 kmh 30.27 in1025.1 mb 0.00 in0.0 mm 0.00 in0.0 mm 0.00 in0.0 mm
06:00 AM 40.8°F4.9°C 36.7°F2.6°C 85% Calm Calm 2.2 mph3.5 kmh 30.26 in1024.7 mb 0.00 in0.0 mm 0.00 in0.0 mm 0.00 in0.0 mm
06:15 AM 40.5°F4.7°C 36.3°F2.4°C 85% Calm Calm 2.2 mph3.5 kmh 30.26 in1024.7 mb 0.00 in0.0 mm 0.00 in0.0 mm 0.00 in0.0 mm
06:30 AM 40.5°F4.7°C 36.6°F2.6°C 86% 1.6 mph ESE2.6 kmh ESE 3.8 mph6.1 kmh 30.26 in1024.7 mb 0.00 in0.0 mm 0.00 in0.0 mm 0.00 in0.0 mm
06:45 AM 40.1°F4.5°C 36.3°F2.4°C 86% 0.7 mph E1.1 kmh E 3.1 mph5.0 kmh 30.26 in1024.7 mb 0.00 in0.0 mm 0.00 in0.0 mm 0.00 in0.0 mm
07:00 AM 39.4°F4.1°C 35.5°F1.9°C 86% 0.7 mph SE1.1 kmh SE 2.2 mph3.5 kmh 30.26 in1024.7 mb 0.00 in0.0 mm 0.00 in0.0 mm 0.00 in0.0 mm
07:15 AM 38.8°F3.8°C 35.3°F1.8°C 87% 0.7 mph SE1.1 kmh SE 1.6 mph2.6 kmh 30.27 in1025.1 mb 0.00 in0.0 mm 0.00 in0.0 mm 0.00 in0.0 mm
07:30 AM 39.0°F3.9°C 35.5°F1.9°C 87% Calm Calm 2.2 mph3.5 kmh 30.27 in1025.1 mb 0.00 in0.0 mm 0.00 in0.0 mm 0.00 in0.0 mm
07:45 AM 39.9°F4.4°C 36.4°F2.4°C 87% 0.7 mph E1.1 kmh E 3.1 mph5.0 kmh 30.28 in1025.4 mb 0.00 in0.0 mm 0.00 in0.0 mm 0.00 in0.0 mm
08:00 AM 41.9°F5.5°C 38.3°F3.5°C 87% Calm Calm 2.2 mph3.5 kmh 30.29 in1025.7 mb 0.00 in0.0 mm 0.00 in0.0 mm 0.00 in0.0 mm
08:15 AM 45.9°F7.7°C 42.2°F5.7°C 87% 0.7 mph E1.1 kmh E 1.6 mph2.6 kmh 30.29 in1025.7 mb 0.00 in0.0 mm 0.00 in0.0 mm 0.00 in0.0 mm
08:30 AM 48.0°F8.9°C 43.7°F6.5°C 85% 0.7 mph E1.1 kmh E 2.2 mph3.5 kmh 30.28 in1025.4 mb 0.00 in0.0 mm 0.00 in0.0 mm 0.00 in0.0 mm
08:45 AM 48.6°F9.2°C 41.7°F5.4°C 77% 1.6 mph ENE2.6 kmh ENE 3.8 mph6.1 kmh 30.30 in1026.1 mb 0.00 in0.0 mm 0.00 in0.0 mm 0.00 in0.0 mm
09:00 AM 49.1°F9.5°C 40.1°F4.5°C 71% 2.2 mph N3.5 kmh N 4.5 mph7.2 kmh 30.30 in1026.1 mb 0.00 in0.0 mm 0.00 in0.0 mm 0.00 in0.0 mm
09:15 AM 50.2°F10.1°C 39.7°F4.3°C 67% Calm Calm 3.8 mph6.1 kmh 30.29 in1025.7 mb 0.00 in0.0 mm 0.00 in0.0 mm 0.00 in0.0 mm
09:30 AM 51.1°F10.6°C 39.3°F4.1°C 64% 2.2 mph NE3.5 kmh NE 5.4 mph8.7 kmh 30.30 in1026.1 mb 0.00 in0.0 mm 0.00 in0.0 mm 0.00 in0.0 mm
09:45 AM 52.2°F11.2°C 39.1°F3.9°C 61% 3.8 mph NE6.1 kmh NE 6.0 mph9.7 kmh 30.30 in1026.1 mb 0.00 in0.0 mm 0.00 in0.0 mm 0.00 in0.0 mm
10:00 AM 52.7°F11.5°C 40.1°F4.5°C 62% 1.6 mph NE2.6 kmh NE 4.5 mph7.2 kmh 30.31 in1026.4 mb 0.00 in0.0 mm 0.00 in0.0 mm 0.00 in0.0 mm
10:15 AM 52.5°F11.4°C 38.2°F3.4°C 58% 4.5 mph NNE7.2 kmh NNE 8.3 mph13.4 kmh 30.32 in1026.8 mb 0.00 in0.0 mm 0.00 in0.0 mm 0.00 in0.0 mm
10:30 AM 52.9°F11.6°C 37.6°F3.1°C 56% 3.1 mph NE5.0 kmh NE 6.9 mph11.1 kmh 30.31 in1026.4 mb 0.00 in0.0 mm 0.00 in0.0 mm 0.00 in0.0 mm
10:45 AM 53.8°F12.1°C 38.0°F3.3°C 55% 3.8 mph NE6.1 kmh NE 9.2 mph14.8 kmh 30.31 in1026.4 mb 0.00 in0.0 mm 0.00 in0.0 mm 0.00 in0.0 mm
11:00 AM 54.1°F12.3°C 37.9°F3.3°C 54% 2.2 mph NNE3.5 kmh NNE 8.3 mph13.4 kmh 30.31 in1026.4 mb 0.00 in0.0 mm 0.00 in0.0 mm 0.00 in0.0 mm
11:15 AM 55.4°F13.0°C 37.1°F2.8°C 50% 2.2 mph NE3.5 kmh NE 6.0 mph9.7 kmh 30.30 in1026.1 mb 0.00 in0.0 mm 0.00 in0.0 mm 0.00 in0.0 mm
11:30 AM 57.2°F14.0°C 36.1°F2.3°C 45% 1.6 mph NE2.6 kmh NE 6.9 mph11.1 kmh 30.30 in1026.1 mb 0.00 in0.0 mm 0.00 in0.0 mm 0.00 in0.0 mm
11:45 AM 55.9°F13.3°C 34.4°F1.3°C 44% 2.2 mph ENE3.5 kmh ENE 9.2 mph14.8 kmh 30.30 in1026.1 mb 0.00 in0.0 mm 0.00 in0.0 mm 0.00 in0.0 mm
12:00 PM 55.8°F13.2°C 34.2°F1.2°C 44% 3.8 mph ENE6.1 kmh ENE 8.3 mph13.4 kmh 30.30 in1026.1 mb 0.00 in0.0 mm 0.00 in0.0 mm 0.00 in0.0 mm
12:15 PM 57.6°F14.2°C 35.8°F2.1°C 44% 5.4 mph ENE8.7 kmh ENE 6.0 mph9.7 kmh 30.29 in1025.7 mb 0.00 in0.0 mm 0.00 in0.0 mm 0.00 in0.0 mm
12:30 PM 58.3°F14.6°C 33.4°F0.8°C 39% 2.2 mph NNE3.5 kmh NNE 6.0 mph9.7 kmh 30.28 in1025.4 mb 0.00 in0.0 mm 0.00 in0.0 mm 0.00 in0.0 mm
12:45 PM 57.2°F14.0°C 28.4°F-2.0°C 33% 3.8 mph N6.1 kmh N 10.7 mph17.2 kmh 30.28 in1025.4 mb 0.00 in0.0 mm 0.00 in0.0 mm 0.00 in0.0 mm
01:00 PM 58.6°F14.8°C 31.1°F-0.5°C 35% 3.1 mph NE5.0 kmh NE 6.0 mph9.7 kmh 30.27 in1025.1 mb 0.00 in0.0 mm 0.00 in0.0 mm 0.00 in0.0 mm
01:15 PM 59.4°F15.2°C 30.3°F-0.9°C 33% 3.8 mph NNE6.1 kmh NNE 6.0 mph9.7 kmh 30.27 in1025.1 mb 0.00 in0.0 mm 0.00 in0.0 mm 0.00 in0.0 mm
01:30 PM 59.2°F15.1°C 30.1°F-1.1°C 33% 3.1 mph E5.0 kmh E 6.9 mph11.1 kmh 30.27 in1025.1 mb 0.00 in0.0 mm 0.00 in0.0 mm 0.00 in0.0 mm
01:45 PM 59.7°F15.4°C 29.8°F-1.2°C 32% 4.5 mph NE7.2 kmh NE 7.6 mph12.2 kmh 30.25 in1024.4 mb 0.00 in0.0 mm 0.00 in0.0 mm 0.00 in0.0 mm
02:00 PM 59.5°F15.3°C 28.9°F-1.7°C 31% 2.2 mph E3.5 kmh E 7.6 mph12.2 kmh 30.25 in1024.4 mb 0.00 in0.0 mm 0.00 in0.0 mm 0.00 in0.0 mm
02:15 PM 59.2°F15.1°C 22.4°F-5.3°C 24% 3.1 mph E5.0 kmh E 9.2 mph14.8 kmh 30.24 in1024.0 mb 0.00 in0.0 mm 0.00 in0.0 mm 0.00 in0.0 mm
02:30 PM 60.1°F15.6°C 25.1°F-3.8°C 26% 3.8 mph NE6.1 kmh NE 8.3 mph13.4 kmh 30.23 in1023.7 mb 0.00 in0.0 mm 0.00 in0.0 mm 0.00 in0.0 mm
02:45 PM 59.5°F15.3°C 22.7°F-5.2°C 24% 5.4 mph ENE8.7 kmh ENE 8.3 mph13.4 kmh 30.23 in1023.7 mb 0.00 in0.0 mm 0.00 in0.0 mm 0.00 in0.0 mm
03:00 PM 60.4°F15.8°C 24.5°F-4.2°C 25% 3.8 mph E6.1 kmh E 10.7 mph17.2 kmh 30.21 in1023.0 mb 0.00 in0.0 mm 0.00 in0.0 mm 0.00 in0.0 mm
03:15 PM 59.5°F15.3°C 25.5°F-3.6°C 27% 3.8 mph ENE6.1 kmh ENE 10.7 mph17.2 kmh 30.21 in1023.0 mb 0.00 in0.0 mm 0.00 in0.0 mm 0.00 in0.0 mm
03:30 PM 60.3°F15.7°C 23.3°F-4.8°C 24% 4.5 mph NE7.2 kmh NE 8.3 mph13.4 kmh 30.20 in1022.7 mb 0.00 in0.0 mm 0.00 in0.0 mm 0.00 in0.0 mm
03:45 PM 60.4°F15.8°C 24.5°F-4.2°C 25% 3.8 mph NE6.1 kmh NE 9.2 mph14.8 kmh 30.20 in1022.7 mb 0.00 in0.0 mm 0.00 in0.0 mm 0.00 in0.0 mm
04:00 PM 60.6°F15.9°C 27.4°F-2.6°C 28% 2.2 mph E3.5 kmh E 9.8 mph15.8 kmh 30.19 in1022.4 mb 0.00 in0.0 mm 0.00 in0.0 mm 0.00 in0.0 mm
04:15 PM 61.2°F16.2°C 26.9°F-2.8°C 27% 2.2 mph E3.5 kmh E 9.8 mph15.8 kmh 30.19 in1022.4 mb 0.00 in0.0 mm 0.00 in0.0 mm 0.00 in0.0 mm
04:30 PM 61.0°F16.1°C 27.7°F-2.4°C 28% 4.5 mph NE7.2 kmh NE 10.7 mph17.2 kmh 30.19 in1022.4 mb 0.00 in0.0 mm 0.00 in0.0 mm 0.00 in0.0 mm
04:45 PM 61.0°F16.1°C 24.9°F-3.9°C 25% 3.1 mph ENE5.0 kmh ENE 7.6 mph12.2 kmh 30.18 in1022.0 mb 0.00 in0.0 mm 0.00 in0.0 mm 0.00 in0.0 mm
05:00 PM 61.2°F16.2°C 26.9°F-2.8°C 27% 4.5 mph NE7.2 kmh NE 9.8 mph15.8 kmh 30.18 in1022.0 mb 0.00 in0.0 mm 0.00 in0.0 mm 0.00 in0.0 mm
05:15 PM 60.8°F16.0°C 25.7°F-3.5°C 26% 2.2 mph NNE3.5 kmh NNE 6.9 mph11.1 kmh 30.18 in1022.0 mb 0.00 in0.0 mm 0.00 in0.0 mm 0.00 in0.0 mm
05:30 PM 61.3°F16.3°C 25.2°F-3.8°C 25% 3.1 mph ENE5.0 kmh ENE 6.0 mph9.7 kmh 30.18 in1022.0 mb 0.00 in0.0 mm 0.00 in0.0 mm 0.00 in0.0 mm
05:45 PM 60.8°F16.0°C 23.8°F-4.6°C 24% 3.1 mph NE5.0 kmh NE 7.6 mph12.2 kmh 30.18 in1022.0 mb 0.00 in0.0 mm 0.00 in0.0 mm 0.00 in0.0 mm
06:00 PM 60.6°F15.9°C 25.6°F-3.6°C 26% 3.8 mph NNE6.1 kmh NNE 6.0 mph9.7 kmh 30.18 in1022.0 mb 0.00 in0.0 mm 0.00 in0.0 mm 0.00 in0.0 mm
06:15 PM 59.4°F15.2°C 26.3°F-3.2°C 28% 1.6 mph NE2.6 kmh NE 5.4 mph8.7 kmh 30.18 in1022.0 mb 0.00 in0.0 mm 0.00 in0.0 mm 0.00 in0.0 mm
06:30 PM 57.4°F14.1°C 27.0°F-2.8°C 31% 3.1 mph NE5.0 kmh NE 6.9 mph11.1 kmh 30.17 in1021.7 mb 0.00 in0.0 mm 0.00 in0.0 mm 0.00 in0.0 mm
06:45 PM 54.3°F12.4°C 27.3°F-2.6°C 35% 3.1 mph NNE5.0 kmh NNE 6.0 mph9.7 kmh 30.17 in1021.7 mb 0.00 in0.0 mm 0.00 in0.0 mm 0.00 in0.0 mm
07:00 PM 53.2°F11.8°C 30.8°F-0.7°C 42% 1.6 mph NE2.6 kmh NE 8.3 mph13.4 kmh 30.17 in1021.7 mb 0.00 in0.0 mm 0.00 in0.0 mm 0.00 in0.0 mm
07:15 PM 53.1°F11.7°C 30.6°F-0.8°C 42% 0.7 mph NE1.1 kmh NE 6.0 mph9.7 kmh 30.16 in1021.3 mb 0.00 in0.0 mm 0.00 in0.0 mm 0.00 in0.0 mm
07:30 PM 52.7°F11.5°C 31.4°F-0.3°C 44% 1.6 mph NE2.6 kmh NE 6.0 mph9.7 kmh 30.16 in1021.3 mb 0.00 in0.0 mm 0.00 in0.0 mm 0.00 in0.0 mm
07:45 PM 52.2°F11.2°C 31.5°F-0.3°C 45% 2.2 mph NE3.5 kmh NE 4.5 mph7.2 kmh 30.17 in1021.7 mb 0.00 in0.0 mm 0.00 in0.0 mm 0.00 in0.0 mm
08:00 PM 51.8°F11.0°C 32.7°F0.4°C 48% 1.6 mph N2.6 kmh N 4.5 mph7.2 kmh 30.17 in1021.7 mb 0.00 in0.0 mm 0.00 in0.0 mm 0.00 in0.0 mm
08:15 PM 51.6°F10.9°C 34.6°F1.4°C 52% 3.1 mph N5.0 kmh N 5.4 mph8.7 kmh 30.17 in1021.7 mb 0.00 in0.0 mm 0.00 in0.0 mm 0.00 in0.0 mm
08:30 PM 51.3°F10.7°C 33.8°F1.0°C 51% 1.6 mph N2.6 kmh N 4.5 mph7.2 kmh 30.17 in1021.7 mb 0.00 in0.0 mm 0.00 in0.0 mm 0.00 in0.0 mm
08:45 PM 51.1°F10.6°C 34.1°F1.2°C 52% 0.7 mph N1.1 kmh N 3.8 mph6.1 kmh 30.18 in1022.0 mb 0.00 in0.0 mm 0.00 in0.0 mm 0.00 in0.0 mm
09:00 PM 50.7°F10.4°C 34.2°F1.2°C 53% Calm Calm 3.1 mph5.0 kmh 30.18 in1022.0 mb 0.00 in0.0 mm 0.00 in0.0 mm 0.00 in0.0 mm
09:15 PM 50.2°F10.1°C 33.7°F0.9°C 53% 0.7 mph N1.1 kmh N 3.1 mph5.0 kmh 30.18 in1022.0 mb 0.00 in0.0 mm 0.00 in0.0 mm 0.00 in0.0 mm
09:30 PM 50.0°F10.0°C 34.0°F1.1°C 54% Calm Calm 3.8 mph6.1 kmh 30.19 in1022.4 mb 0.00 in0.0 mm 0.00 in0.0 mm 0.00 in0.0 mm
09:45 PM 49.5°F9.7°C 34.4°F1.3°C 56% 0.7 mph NE1.1 kmh NE 2.2 mph3.5 kmh 30.19 in1022.4 mb 0.00 in0.0 mm 0.00 in0.0 mm 0.00 in0.0 mm
10:00 PM 49.3°F9.6°C 34.7°F1.5°C 57% 1.6 mph NE2.6 kmh NE 3.1 mph5.0 kmh 30.19 in1022.4 mb 0.00 in0.0 mm 0.00 in0.0 mm 0.00 in0.0 mm
10:15 PM 49.3°F9.6°C 36.8°F2.7°C 62% 0.7 mph ENE1.1 kmh ENE 4.5 mph7.2 kmh 30.19 in1022.4 mb 0.00 in0.0 mm 0.00 in0.0 mm 0.00 in0.0 mm
10:30 PM 49.3°F9.6°C 38.0°F3.3°C 65% 3.1 mph ENE5.0 kmh ENE 6.9 mph11.1 kmh 30.19 in1022.4 mb 0.00 in0.0 mm 0.00 in0.0 mm 0.00 in0.0 mm
10:45 PM 49.1°F9.5°C 39.0°F3.9°C 68% 3.8 mph NE6.1 kmh NE 8.3 mph13.4 kmh 30.20 in1022.7 mb 0.00 in0.0 mm 0.00 in0.0 mm 0.00 in0.0 mm
11:00 PM 48.7°F9.3°C 39.4°F4.1°C 70% 5.4 mph NE8.7 kmh NE 8.3 mph13.4 kmh 30.19 in1022.4 mb 0.00 in0.0 mm 0.00 in0.0 mm 0.00 in0.0 mm
11:15 PM 48.7°F9.3°C 39.8°F4.3°C 71% 3.8 mph ENE6.1 kmh ENE 8.3 mph13.4 kmh 30.19 in1022.4 mb 0.00 in0.0 mm 0.00 in0.0 mm 0.00 in0.0 mm
11:30 PM 48.2°F9.0°C 39.6°F4.2°C 72% 3.8 mph ENE6.1 kmh ENE 6.0 mph9.7 kmh 30.19 in1022.4 mb 0.00 in0.0 mm 0.00 in0.0 mm 0.00 in0.0 mm
11:45 PM 47.8°F8.8°C 40.0°F4.4°C 74% 6.0 mph NE9.7 kmh NE 7.6 mph12.2 kmh 30.19 in1022.4 mb 0.00 in0.0 mm 0.00 in0.0 mm 0.00 in0.0 mm